Time;durP1;ratioP1;P1;durP2;ratioP2;P2;SDS_P1;SDS_P2;PMS_P1;PMS_P2;Temp;Humidity;BMP_temperature;BMP_pressure;BME280_temperature;BME280_humidity;BME280_pressure;Samples;Min_cycle;Max_cycle;Signal;HPM_P1;HPM_P2
2021/06/25 00:02:16;;;;;;;;;;;13.20;90.60;;;;;;5061292;28;20357;-66
2021/06/25 00:04:42;;;;;;;;;;;13.20;90.70;;;;;;5054783;28;19977;-66
2021/06/25 00:07:07;;;;;;;;;;;13.10;90.60;;;;;;5057702;28;19916;-66
2021/06/25 00:09:33;;;;;;;;;;;13.10;90.90;;;;;;5062305;28;19909;-65
2021/06/25 00:11:59;;;;;;;;;;;13.00;90.80;;;;;;5058921;28;19917;-66
2021/06/25 00:14:24;;;;;;;;;;;13.00;91.10;;;;;;5058488;28;20519;-65
2021/06/25 00:16:50;;;;;;;;;;;12.90;91.30;;;;;;5062069;28;19924;-65
2021/06/25 00:19:16;;;;;;;;;;;12.90;91.20;;;;;;5061141;28;19916;-66
2021/06/25 00:21:42;;;;;;;;;;;12.90;91.20;;;;;;5060218;28;19924;-64
2021/06/25 00:24:08;;;;;;;;;;;12.80;91.30;;;;;;5058465;28;20290;-66
2021/06/25 00:26:33;;;;;;;;;;;12.80;91.40;;;;;;5039768;28;20027;-66
2021/06/25 00:28:59;;;;;;;;;;;12.70;91.60;;;;;;5060224;28;19980;-66
2021/06/25 00:31:24;;;;;;;;;;;12.80;91.60;;;;;;5061146;28;19993;-66
2021/06/25 00:33:49;;;;;;;;;;;12.70;91.50;;;;;;5059195;28;20408;-66
2021/06/25 00:36:15;;;;;;;;;;;12.70;91.70;;;;;;5060091;28;19990;-66
2021/06/25 00:38:40;;;;;;;;;;;12.60;91.90;;;;;;5061516;28;20372;-65
2021/06/25 00:41:06;;;;;;;;;;;12.60;91.80;;;;;;5061101;28;19959;-66
2021/06/25 00:43:31;;;;;;;;;;;12.50;91.80;;;;;;5060176;28;19912;-66
2021/06/25 00:45:57;;;;;;;;;;;12.50;91.80;;;;;;5063445;28;20273;-66
2021/06/25 00:48:22;;;;;;;;;;;12.40;91.60;;;;;;5059386;28;20083;-65
2021/06/25 00:50:48;;;;;;;;;;;12.40;91.60;;;;;;5063115;28;19942;-66
2021/06/25 00:53:13;;;;;;;;;;;12.30;91.90;;;;;;5059847;28;19921;-66
2021/06/25 00:55:42;;;;;;;;;;;12.20;91.50;;;;;;5057274;28;20369;-66
2021/06/25 00:58:09;;;;;;;;;;;12.10;91.70;;;;;;5057913;28;19995;-66
2021/06/25 01:00:34;;;;;;;;;;;12.10;92.00;;;;;;5058277;28;19970;-66
2021/06/25 01:03:00;;;;;;;;;;;12.00;92.20;;;;;;5056513;28;19952;-67
2021/06/25 01:05:26;;;;;;;;;;;12.00;92.10;;;;;;5053103;28;19955;-66
2021/06/25 01:07:51;;;;;;;;;;;12.00;92.30;;;;;;5061670;28;20516;-66
2021/06/25 01:10:17;;;;;;;;;;;12.00;92.30;;;;;;5059886;28;20009;-67
2021/06/25 01:12:43;;;;;;;;;;;11.90;92.60;;;;;;5061442;28;20549;-66
2021/06/25 01:15:08;;;;;;;;;;;11.90;92.40;;;;;;5049402;28;19929;-66
2021/06/25 01:17:35;;;;;;;;;;;11.80;92.30;;;;;;5051595;28;20328;-66
2021/06/25 01:20:03;;;;;;;;;;;11.80;92.30;;;;;;5032880;28;19916;-66
2021/06/25 01:22:36;;;;;;;;;;;11.70;93.10;;;;;;5060207;28;19920;-66
2021/06/25 01:25:03;;;;;;;;;;;11.70;93.60;;;;;;5056443;28;20337;-66
2021/06/25 01:27:29;;;;;;;;;;;11.70;93.90;;;;;;5052871;28;20365;-66
2021/06/25 01:29:57;;;;;;;;;;;11.70;94.00;;;;;;5062824;28;20046;-66
2021/06/25 01:32:23;;;;;;;;;;;11.70;94.10;;;;;;5053333;28;20394;-66
2021/06/25 01:34:48;;;;;;;;;;;11.70;93.90;;;;;;5063984;28;19908;-66
2021/06/25 01:37:14;;;;;;;;;;;11.60;94.20;;;;;;5059161;28;19955;-66
2021/06/25 01:39:40;;;;;;;;;;;11.50;94.50;;;;;;5062966;28;19923;-67
2021/06/25 01:42:06;;;;;;;;;;;11.50;94.60;;;;;;5062334;28;19990;-66
2021/06/25 01:44:31;;;;;;;;;;;11.40;94.80;;;;;;5054274;28;20012;-67
2021/06/25 01:46:57;;;;;;;;;;;11.50;94.90;;;;;;5056027;28;20007;-66
2021/06/25 01:49:23;;;;;;;;;;;11.40;94.80;;;;;;5046000;28;19966;-66
2021/06/25 01:51:48;;;;;;;;;;;11.40;94.80;;;;;;5056294;28;20020;-66
2021/06/25 01:54:14;;;;;;;;;;;11.40;94.50;;;;;;5062418;28;19977;-66
2021/06/25 01:56:39;;;;;;;;;;;11.40;94.40;;;;;;5058206;28;19931;-66
2021/06/25 01:59:05;;;;;;;;;;;11.30;94.10;;;;;;5057810;28;19913;-66
2021/06/25 02:01:30;;;;;;;;;;;11.30;93.90;;;;;;5061752;28;19989;-66
2021/06/25 02:03:58;;;;;;;;;;;11.20;93.50;;;;;;5062584;28;20393;-66
2021/06/25 02:06:24;;;;;;;;;;;11.10;93.50;;;;;;5057291;28;20492;-66
2021/06/25 02:08:49;;;;;;;;;;;11.10;93.70;;;;;;5058151;28;20042;-66
2021/06/25 02:11:17;;;;;;;;;;;11.10;93.50;;;;;;5061885;28;20393;-66
2021/06/25 02:13:42;;;;;;;;;;;11.00;93.40;;;;;;5052383;28;19923;-65
2021/06/25 02:16:08;;;;;;;;;;;11.00;93.60;;;;;;5058912;28;19917;-66
2021/06/25 02:18:33;;;;;;;;;;;11.00;93.30;;;;;;5055659;28;19923;-66
2021/06/25 02:20:59;;;;;;;;;;;10.90;93.50;;;;;;5057746;28;19920;-66
2021/06/25 02:23:25;;;;;;;;;;;10.90;93.90;;;;;;5036234;28;20035;-67
2021/06/25 02:25:50;;;;;;;;;;;10.80;93.80;;;;;;5061718;28;20131;-66
2021/06/25 02:28:16;;;;;;;;;;;10.80;93.70;;;;;;5059892;28;20366;-66
2021/06/25 02:30:42;;;;;;;;;;;10.80;93.80;;;;;;5058985;28;19916;-67
2021/06/25 02:33:07;;;;;;;;;;;10.80;94.00;;;;;;5056072;28;20007;-67
2021/06/25 02:35:33;;;;;;;;;;;10.80;94.10;;;;;;5052779;28;19995;-67
2021/06/25 02:37:58;;;;;;;;;;;10.80;93.60;;;;;;5060786;28;20187;-66
2021/06/25 02:40:24;;;;;;;;;;;10.80;94.30;;;;;;5048834;28;19993;-66
2021/06/25 02:42:50;;;;;;;;;;;10.80;94.50;;;;;;5050438;28;19916;-66
2021/06/25 02:45:15;;;;;;;;;;;10.70;94.40;;;;;;5058802;28;19925;-65
2021/06/25 02:47:41;;;;;;;;;;;10.70;94.20;;;;;;5051062;28;19999;-66
2021/06/25 02:50:08;;;;;;;;;;;10.70;94.30;;;;;;5065375;28;19920;-67
2021/06/25 02:52:33;;;;;;;;;;;10.70;94.80;;;;;;5067133;28;20750;-66
2021/06/25 02:54:59;;;;;;;;;;;10.70;94.90;;;;;;5058874;28;19912;-66
2021/06/25 02:57:24;;;;;;;;;;;10.70;94.90;;;;;;5065263;28;19912;-66
2021/06/25 02:59:50;;;;;;;;;;;10.70;94.50;;;;;;5057027;28;19916;-66
2021/06/25 03:02:15;;;;;;;;;;;10.70;93.70;;;;;;5057985;28;19982;-66
2021/06/25 03:04:41;;;;;;;;;;;10.70;93.80;;;;;;5044523;28;19999;-67
2021/06/25 03:07:06;;;;;;;;;;;10.70;93.80;;;;;;5066447;28;19916;-66
2021/06/25 03:09:32;;;;;;;;;;;10.70;93.70;;;;;;5064114;28;19916;-66
2021/06/25 03:11:57;;;;;;;;;;;10.70;93.50;;;;;;5061940;28;20015;-66
2021/06/25 03:14:23;;;;;;;;;;;10.80;94.00;;;;;;5060313;28;19947;-66
2021/06/25 03:16:48;;;;;;;;;;;10.80;94.70;;;;;;5047715;28;20283;-66
2021/06/25 03:19:14;;;;;;;;;;;10.80;94.90;;;;;;5064486;28;19990;-67
2021/06/25 03:21:40;;;;;;;;;;;10.80;94.90;;;;;;5062016;28;19921;-66
2021/06/25 03:24:06;;;;;;;;;;;10.70;94.30;;;;;;5059230;28;20299;-66
2021/06/25 03:26:31;;;;;;;;;;;10.80;94.40;;;;;;5066721;28;20384;-66
2021/06/25 03:28:56;;;;;;;;;;;10.80;94.40;;;;;;5051960;28;20404;-66
2021/06/25 03:31:22;;;;;;;;;;;10.80;94.20;;;;;;5054579;28;19924;-65
2021/06/25 03:33:48;;;;;;;;;;;10.90;94.50;;;;;;5064661;28;19916;-66
2021/06/25 03:36:13;;;;;;;;;;;10.90;94.60;;;;;;5052366;28;20432;-66
2021/06/25 03:38:39;;;;;;;;;;;11.00;95.00;;;;;;5067068;28;19981;-66
2021/06/25 03:41:05;;;;;;;;;;;11.00;94.90;;;;;;5065740;28;20253;-66
2021/06/25 03:43:30;;;;;;;;;;;11.00;94.90;;;;;;5065290;28;19908;-65
2021/06/25 03:45:56;;;;;;;;;;;11.10;94.80;;;;;;5035475;28;20090;-67
2021/06/25 03:48:21;;;;;;;;;;;11.10;94.60;;;;;;5063022;28;19912;-66
2021/06/25 03:50:47;;;;;;;;;;;11.10;94.40;;;;;;5066129;28;19920;-66
2021/06/25 03:53:12;;;;;;;;;;;11.20;94.50;;;;;;5064647;28;20354;-66
2021/06/25 03:56:09;;;;;;;;;;;11.30;94.70;;;;;;5063663;28;19916;-66
2021/06/25 03:58:23;;;;;;;;;;;11.40;94.70;;;;;;5063011;28;20005;-66
2021/06/25 04:00:49;;;;;;;;;;;11.40;94.50;;;;;;5046545;28;19984;-66
2021/06/25 04:03:14;;;;;;;;;;;11.50;94.40;;;;;;5052726;28;20341;-66
2021/06/25 04:05:41;;;;;;;;;;;11.60;94.20;;;;;;5045381;28;19932;-65
2021/06/25 04:08:06;;;;;;;;;;;11.60;94.20;;;;;;5063932;28;19920;-67
2021/06/25 04:10:32;;;;;;;;;;;11.60;94.00;;;;;;5057176;28;21372;-66
2021/06/25 04:12:57;;;;;;;;;;;11.70;94.50;;;;;;5065371;28;20075;-67
2021/06/25 04:15:22;;;;;;;;;;;11.80;94.60;;;;;;5064709;28;19919;-66
2021/06/25 04:17:48;;;;;;;;;;;11.90;94.50;;;;;;5055857;28;20069;-66
2021/06/25 04:20:15;;;;;;;;;;;12.00;94.40;;;;;;5049873;28;19920;-66
2021/06/25 04:22:40;;;;;;;;;;;12.10;94.40;;;;;;5050760;28;19956;-66
2021/06/25 04:25:06;;;;;;;;;;;12.10;94.10;;;;;;5046188;28;19988;-66
2021/06/25 04:27:31;;;;;;;;;;;12.20;93.80;;;;;;5059799;28;19931;-67
2021/06/25 04:29:57;;;;;;;;;;;12.30;93.50;;;;;;5057350;28;19913;-67
2021/06/25 04:32:23;;;;;;;;;;;12.30;93.30;;;;;;5057822;28;19920;-66
2021/06/25 04:34:48;;;;;;;;;;;12.40;93.30;;;;;;5065143;28;19998;-66
2021/06/25 04:37:14;;;;;;;;;;;12.50;93.20;;;;;;5042333;28;20341;-67
2021/06/25 04:39:39;;;;;;;;;;;12.60;92.90;;;;;;5060789;28;19912;-67
2021/06/25 04:42:05;;;;;;;;;;;12.60;92.90;;;;;;5055240;28;19936;-67
2021/06/25 04:44:31;;;;;;;;;;;12.70;92.50;;;;;;5059330;28;19984;-67
2021/06/25 04:46:56;;;;;;;;;;;12.80;92.20;;;;;;5063429;28;20006;-67
2021/06/25 04:49:22;;;;;;;;;;;12.90;92.00;;;;;;5062490;28;20031;-68
2021/06/25 04:51:47;;;;;;;;;;;12.90;92.00;;;;;;5061216;28;19920;-67
2021/06/25 04:54:13;;;;;;;;;;;13.00;91.90;;;;;;5051656;28;19923;-67
2021/06/25 04:56:38;;;;;;;;;;;13.10;91.70;;;;;;5061864;28;19939;-67
2021/06/25 04:59:04;;;;;;;;;;;13.10;91.40;;;;;;5064340;28;20008;-67
2021/06/25 05:01:29;;;;;;;;;;;13.10;91.20;;;;;;5058726;28;19920;-67
2021/06/25 05:03:55;;;;;;;;;;;13.20;90.90;;;;;;5063976;28;20019;-66
2021/06/25 05:06:20;;;;;;;;;;;13.30;90.90;;;;;;5060973;28;20388;-67
2021/06/25 05:08:45;;;;;;;;;;;13.40;90.40;;;;;;5058187;28;19921;-67
2021/06/25 05:11:11;;;;;;;;;;;13.30;89.30;;;;;;5052143;28;20550;-67
2021/06/25 05:13:36;;;;;;;;;;;13.50;89.40;;;;;;5056992;28;20015;-67
2021/06/25 05:16:02;;;;;;;;;;;13.50;89.90;;;;;;5063048;28;20036;-66
2021/06/25 05:18:28;;;;;;;;;;;13.60;89.50;;;;;;5042732;28;19916;-67
2021/06/25 05:20:53;;;;;;;;;;;13.60;89.20;;;;;;5055473;28;19932;-67
2021/06/25 05:23:19;;;;;;;;;;;13.80;89.20;;;;;;5062480;28;19966;-67
2021/06/25 05:25:45;;;;;;;;;;;13.90;88.80;;;;;;5063109;28;19924;-67
2021/06/25 05:28:11;;;;;;;;;;;13.80;87.60;;;;;;5062158;28;19927;-68
2021/06/25 05:30:37;;;;;;;;;;;13.90;87.80;;;;;;5053278;28;19916;-67
2021/06/25 05:33:03;;;;;;;;;;;14.00;88.00;;;;;;5059754;28;19969;-67
2021/06/25 05:35:32;;;;;;;;;;;14.10;87.60;;;;;;5051227;28;20305;-68
2021/06/25 05:37:58;;;;;;;;;;;14.10;86.40;;;;;;5057065;28;20023;-68
2021/06/25 05:40:24;;;;;;;;;;;14.30;85.70;;;;;;5063538;28;19933;-68
2021/06/25 05:42:49;;;;;;;;;;;14.40;82.90;;;;;;5062629;28;19912;-68
2021/06/25 05:45:15;;;;;;;;;;;14.50;84.90;;;;;;5061793;28;20455;-68
2021/06/25 05:47:40;;;;;;;;;;;14.60;85.70;;;;;;5055891;28;19927;-68
2021/06/25 05:50:06;;;;;;;;;;;14.60;86.00;;;;;;5053911;28;20043;-68
2021/06/25 05:52:31;;;;;;;;;;;14.60;86.40;;;;;;5036466;28;19988;-68
2021/06/25 05:54:57;;;;;;;;;;;14.50;85.50;;;;;;5051409;28;19912;-67
2021/06/25 05:57:22;;;;;;;;;;;14.50;85.30;;;;;;5062027;28;20439;-68
2021/06/25 05:59:48;;;;;;;;;;;14.60;86.40;;;;;;5060515;28;20007;-68
2021/06/25 06:02:13;;;;;;;;;;;14.50;84.80;;;;;;5052118;28;20393;-68
2021/06/25 06:04:39;;;;;;;;;;;14.40;84.70;;;;;;5046621;28;19922;-67
2021/06/25 06:07:06;;;;;;;;;;;14.50;83.80;;;;;;5061835;28;20634;-67
2021/06/25 06:09:32;;;;;;;;;;;14.50;84.60;;;;;;5062896;28;20399;-68
2021/06/25 06:11:57;;;;;;;;;;;14.50;83.30;;;;;;5061876;28;19916;-67
2021/06/25 06:14:23;;;;;;;;;;;14.60;83.10;;;;;;5059180;28;19947;-67
2021/06/25 06:16:48;;;;;;;;;;;14.70;83.80;;;;;;5053180;28;20291;-68
2021/06/25 06:19:16;;;;;;;;;;;14.70;82.90;;;;;;5054559;28;19917;-67
2021/06/25 06:32:47;;;;;;;;;;;15.50;79.90;;;;;;5054284;28;20378;-68
2021/06/25 06:35:12;;;;;;;;;;;15.40;78.50;;;;;;5052745;28;19959;-68
2021/06/25 06:37:38;;;;;;;;;;;15.60;78.60;;;;;;5060616;28;19963;-68
2021/06/25 06:40:03;;;;;;;;;;;15.50;78.30;;;;;;5047613;28;19923;-67
2021/06/25 06:42:29;;;;;;;;;;;15.50;78.60;;;;;;5059607;28;19970;-67
2021/06/25 06:44:54;;;;;;;;;;;15.70;79.10;;;;;;5055499;28;19970;-68
2021/06/25 06:47:20;;;;;;;;;;;15.90;78.50;;;;;;5056632;28;19974;-68
2021/06/25 06:49:45;;;;;;;;;;;16.00;78.50;;;;;;5052161;28;19959;-68
2021/06/25 06:52:11;;;;;;;;;;;16.20;78.30;;;;;;5040667;28;20194;-68
2021/06/25 06:54:36;;;;;;;;;;;16.30;77.60;;;;;;5060113;28;19917;-68
2021/06/25 06:57:02;;;;;;;;;;;16.60;78.60;;;;;;5057533;28;19921;-68
2021/06/25 06:59:27;;;;;;;;;;;16.50;74.50;;;;;;5052909;28;19917;-68
2021/06/25 07:01:53;;;;;;;;;;;16.60;75.30;;;;;;5054690;28;19920;-69
2021/06/25 07:04:18;;;;;;;;;;;16.50;75.80;;;;;;5060494;28;19912;-69
2021/06/25 07:06:44;;;;;;;;;;;16.50;74.80;;;;;;5057780;28;19939;-68
2021/06/25 07:09:09;;;;;;;;;;;16.50;72.90;;;;;;5053072;28;19987;-69
2021/06/25 07:11:35;;;;;;;;;;;16.60;72.50;;;;;;5049902;28;20533;-68
2021/06/25 07:14:00;;;;;;;;;;;16.80;72.90;;;;;;5058069;28;20326;-68
2021/06/25 07:16:26;;;;;;;;;;;16.90;71.50;;;;;;5055902;28;19912;-69
2021/06/25 07:18:51;;;;;;;;;;;16.90;71.50;;;;;;5048801;28;19912;-68
2021/06/25 07:21:18;;;;;;;;;;;17.00;71.10;;;;;;5048425;28;19984;-69
2021/06/25 07:23:44;;;;;;;;;;;17.20;70.80;;;;;;5058351;28;20303;-68
2021/06/25 07:26:10;;;;;;;;;;;17.40;70.20;;;;;;5059728;28;19912;-69
2021/06/25 07:28:35;;;;;;;;;;;17.50;71.00;;;;;;5059052;28;19912;-69
2021/06/25 07:31:01;;;;;;;;;;;17.70;69.90;;;;;;5054291;28;19995;-69
2021/06/25 07:33:26;;;;;;;;;;;17.80;71.10;;;;;;5034066;28;19912;-69
2021/06/25 07:35:53;;;;;;;;;;;17.70;68.90;;;;;;5033654;28;19913;-69
2021/06/25 07:38:19;;;;;;;;;;;17.90;69.30;;;;;;5058086;28;20353;-69
2021/06/25 07:40:44;;;;;;;;;;;18.00;68.80;;;;;;5055499;28;19931;-69
2021/06/25 07:43:10;;;;;;;;;;;18.30;67.30;;;;;;5063654;28;19984;-69
2021/06/25 07:45:35;;;;;;;;;;;18.40;67.50;;;;;;5066032;28;19912;-68
2021/06/25 07:48:01;;;;;;;;;;;18.50;68.60;;;;;;5054708;28;19935;-69
2021/06/25 07:50:26;;;;;;;;;;;18.40;67.20;;;;;;5056536;28;20015;-69
2021/06/25 07:52:52;;;;;;;;;;;18.80;66.50;;;;;;5058648;28;19924;-69
2021/06/25 07:55:17;;;;;;;;;;;18.70;65.80;;;;;;5059712;28;20276;-68
2021/06/25 07:57:43;;;;;;;;;;;18.50;66.10;;;;;;5057994;28;20229;-69
2021/06/25 08:00:09;;;;;;;;;;;18.00;66.80;;;;;;5052990;28;20437;-68
2021/06/25 08:02:35;;;;;;;;;;;17.80;67.00;;;;;;5058370;28;19935;-68
2021/06/25 08:05:00;;;;;;;;;;;18.20;66.80;;;;;;5046771;28;19961;-69
2021/06/25 08:07:26;;;;;;;;;;;18.50;66.70;;;;;;5054607;28;20008;-69
2021/06/25 08:09:51;;;;;;;;;;;19.00;67.80;;;;;;5065380;28;20360;-69
2021/06/25 08:12:17;;;;;;;;;;;19.00;62.60;;;;;;5059919;28;19909;-70
2021/06/25 08:14:42;;;;;;;;;;;19.00;64.20;;;;;;5061890;28;19913;-69
2021/06/25 08:17:08;;;;;;;;;;;19.20;64.20;;;;;;5046091;28;19935;-69
2021/06/25 08:19:34;;;;;;;;;;;18.90;65.20;;;;;;5055305;28;20242;-69
2021/06/25 08:22:00;;;;;;;;;;;19.40;63.40;;;;;;5055318;28;19920;-68
2021/06/25 08:24:25;;;;;;;;;;;19.30;64.80;;;;;;5059995;28;19917;-69
2021/06/25 08:26:51;;;;;;;;;;;19.40;65.40;;;;;;5060883;28;19912;-68
2021/06/25 08:29:17;;;;;;;;;;;19.30;64.40;;;;;;5062769;28;19913;-69
2021/06/25 08:31:43;;;;;;;;;;;19.50;63.10;;;;;;5059749;28;20261;-69
2021/06/25 08:34:10;;;;;;;;;;;19.40;64.40;;;;;;5058849;28;19978;-69
2021/06/25 08:36:36;;;;;;;;;;;20.10;62.60;;;;;;5058682;28;19920;-68
2021/06/25 08:39:02;;;;;;;;;;;19.40;63.30;;;;;;5055129;28;19921;-68
2021/06/25 08:41:28;;;;;;;;;;;19.20;64.00;;;;;;5060539;28;20396;-68
2021/06/25 08:43:54;;;;;;;;;;;19.50;63.90;;;;;;5061224;28;20016;-68
2021/06/25 08:46:20;;;;;;;;;;;19.10;62.80;;;;;;5056208;28;19919;-68
2021/06/25 08:48:47;;;;;;;;;;;19.10;63.70;;;;;;5051486;28;20337;-68
2021/06/25 08:51:12;;;;;;;;;;;19.40;65.10;;;;;;5061973;28;19917;-68
2021/06/25 08:53:38;;;;;;;;;;;19.40;62.40;;;;;;5054104;28;20338;-67
2021/06/25 08:56:04;;;;;;;;;;;19.50;63.40;;;;;;5057617;28;19971;-68
2021/06/25 08:58:29;;;;;;;;;;;19.10;63.40;;;;;;5055180;28;19988;-68
2021/06/25 09:00:56;;;;;;;;;;;19.00;63.80;;;;;;5050880;28;19928;-68
2021/06/25 09:03:23;;;;;;;;;;;19.10;66.70;;;;;;5058604;28;20230;-67
2021/06/25 09:05:49;;;;;;;;;;;19.20;65.70;;;;;;5059024;28;19943;-68
2021/06/25 09:08:26;;;;;;;;;;;19.00;65.70;;;;;;5043931;28;20292;-68
2021/06/25 09:10:56;;;;;;;;;;;20.00;63.60;;;;;;5056511;28;19916;-68
2021/06/25 09:13:29;;;;;;;;;;;19.80;62.00;;;;;;5057368;28;20024;-66
2021/06/25 09:15:55;;;;;;;;;;;19.50;62.60;;;;;;5047836;28;20143;-69
2021/06/25 09:18:21;;;;;;;;;;;19.60;62.50;;;;;;5058156;28;19912;-67
2021/06/25 09:20:47;;;;;;;;;;;19.70;62.20;;;;;;5056364;28;19921;-67
2021/06/25 09:23:14;;;;;;;;;;;19.80;63.20;;;;;;5062876;28;20253;-68
2021/06/25 09:25:52;;;;;;;;;;;19.60;62.30;;;;;;5060895;28;20003;-68
2021/06/25 09:28:22;;;;;;;;;;;19.50;62.50;;;;;;5044701;28;19954;-68
2021/06/25 09:30:48;;;;;;;;;;;19.60;62.00;;;;;;5057749;28;20254;-67
2021/06/25 09:33:13;;;;;;;;;;;19.90;62.40;;;;;;5064681;28;19999;-68
2021/06/25 09:35:39;;;;;;;;;;;20.20;61.80;;;;;;5060197;28;20010;-68
2021/06/25 09:38:04;;;;;;;;;;;20.70;59.60;;;;;;5059807;28;19913;-67
2021/06/25 09:40:34;;;;;;;;;;;20.50;60.90;;;;;;5062619;28;19963;-67
2021/06/25 09:43:12;;;;;;;;;;;20.10;60.30;;;;;;5056611;28;20026;-68
2021/06/25 09:45:48;;;;;;;;;;;20.60;59.30;;;;;;5051903;28;19916;-68
2021/06/25 09:48:13;;;;;;;;;;;21.00;59.30;;;;;;5057934;28;20537;-68
2021/06/25 09:50:39;;;;;;;;;;;20.90;58.30;;;;;;5062921;28;19967;-68
2021/06/25 09:53:06;;;;;;;;;;;21.20;59.30;;;;;;5062349;28;20476;-68
2021/06/25 10:03:40;;;;;;;;;;;21.50;58.70;;;;;;5053020;28;20052;-68
2021/06/25 10:06:15;;;;;;;;;;;22.10;57.40;;;;;;5044679;28;19909;-69
2021/06/25 10:08:41;;;;;;;;;;;22.10;53.40;;;;;;5058258;28;20132;-68
2021/06/25 10:11:07;;;;;;;;;;;22.10;54.60;;;;;;5061646;28;19918;-68
2021/06/25 10:13:36;;;;;;;;;;;22.00;53.30;;;;;;5040836;28;19974;-67
2021/06/25 10:16:06;;;;;;;;;;;22.20;54.30;;;;;;5052965;28;20261;-68
2021/06/25 10:18:40;;;;;;;;;;;22.00;53.10;;;;;;5035121;28;19913;-69
2021/06/25 10:21:07;;;;;;;;;;;22.10;52.90;;;;;;5053863;28;19916;-68
2021/06/25 10:23:34;;;;;;;;;;;22.50;51.70;;;;;;5032519;28;20401;-68
2021/06/25 10:26:06;;;;;;;;;;;22.80;53.60;;;;;;5051917;28;19917;-68
2021/06/25 10:28:33;;;;;;;;;;;23.10;51.10;;;;;;5054899;28;20015;-67
2021/06/25 10:30:59;;;;;;;;;;;22.80;50.20;;;;;;5055865;28;20285;-67
2021/06/25 10:33:25;;;;;;;;;;;22.60;50.00;;;;;;5061575;28;19923;-67
2021/06/25 10:35:51;;;;;;;;;;;22.80;51.20;;;;;;5058787;28;19917;-68
2021/06/25 10:38:19;;;;;;;;;;;23.00;51.30;;;;;;5047969;28;20000;-68
2021/06/25 10:40:55;;;;;;;;;;;23.10;48.80;;;;;;5052776;28;20340;-68
2021/06/25 10:43:39;;;;;;;;;;;23.50;46.90;;;;;;5060695;28;20030;-67
2021/06/25 10:46:05;;;;;;;;;;;23.20;48.80;;;;;;5058015;28;19920;-67
2021/06/25 10:48:38;;;;;;;;;;;23.50;51.80;;;;;;5059491;28;19913;-67
2021/06/25 10:51:19;;;;;;;;;;;24.40;50.60;;;;;;5057596;28;19921;-67
2021/06/25 10:54:03;;;;;;;;;;;23.10;50.00;;;;;;5053737;28;20410;-67
2021/06/25 10:56:29;;;;;;;;;;;23.30;48.20;;;;;;5056159;28;20400;-67
2021/06/25 10:59:18;;;;;;;;;;;23.70;46.40;;;;;;5061500;28;19912;-67
2021/06/25 11:01:48;;;;;;;;;;;23.60;46.60;;;;;;5051563;28;19920;-68
2021/06/25 11:04:40;;;;;;;;;;;23.40;46.90;;;;;;5053412;28;20599;-68
2021/06/25 11:07:08;;;;;;;;;;;23.60;45.60;;;;;;5050717;28;20399;-67
2021/06/25 11:10:06;;;;;;;;;;;23.30;48.80;;;;;;5057362;28;20280;-68
2021/06/25 11:12:32;;;;;;;;;;;24.20;48.40;;;;;;5017759;28;19939;-68
2021/06/25 11:15:03;;;;;;;;;;;22.80;49.40;;;;;;5057399;28;19917;-67
2021/06/25 11:17:48;;;;;;;;;;;22.50;51.10;;;;;;5055727;28;19938;-67
2021/06/25 11:20:24;;;;;;;;;;;23.00;48.80;;;;;;5062697;28;20402;-68
2021/06/25 11:22:51;;;;;;;;;;;24.10;47.00;;;;;;5061009;28;19912;-68
2021/06/25 11:25:32;;;;;;;;;;;24.10;46.20;;;;;;5066279;28;19908;-68
2021/06/25 11:28:22;;;;;;;;;;;24.40;46.30;;;;;;5054753;28;20283;-68
2021/06/25 11:30:50;;;;;;;;;;;24.50;46.10;;;;;;5051835;28;20218;-68
2021/06/25 11:33:34;;;;;;;;;;;24.80;44.00;;;;;;5058733;28;19990;-68
2021/06/25 11:36:09;;;;;;;;;;;24.70;44.40;;;;;;5065333;28;19916;-69
2021/06/25 11:38:56;;;;;;;;;;;25.20;45.00;;;;;;5063103;28;20338;-68
2021/06/25 11:41:26;;;;;;;;;;;25.10;44.50;;;;;;5061518;28;20305;-67
2021/06/25 11:43:52;;;;;;;;;;;25.30;43.60;;;;;;5062358;28;20003;-69
2021/06/25 11:46:18;;;;;;;;;;;26.10;41.80;;;;;;5061434;28;20144;-69
2021/06/25 11:48:44;;;;;;;;;;;25.40;42.20;;;;;;5057606;28;19920;-68
2021/06/25 11:51:11;;;;;;;;;;;25.30;43.70;;;;;;5054693;28;20233;-67
2021/06/25 11:53:40;;;;;;;;;;;25.20;43.40;;;;;;5058592;28;20292;-69
2021/06/25 11:56:05;;;;;;;;;;;24.10;45.50;;;;;;5058039;28;19924;-68
2021/06/25 11:58:31;;;;;;;;;;;23.80;45.70;;;;;;5064683;28;20353;-68
2021/06/25 12:01:01;;;;;;;;;;;23.20;46.90;;;;;;5063331;28;19917;-68
2021/06/25 12:03:26;;;;;;;;;;;22.90;47.00;;;;;;5043724;28;19956;-66
2021/06/25 12:06:02;;;;;;;;;;;23.00;48.90;;;;;;5061744;28;20415;-67
2021/06/25 12:08:28;;;;;;;;;;;24.40;47.20;;;;;;5059349;28;19982;-68
2021/06/25 12:10:53;;;;;;;;;;;24.40;44.00;;;;;;5057849;28;19924;-68
2021/06/25 12:13:19;;;;;;;;;;;25.60;42.00;;;;;;5058730;28;19912;-68
2021/06/25 12:15:45;;;;;;;;;;;26.40;39.40;;;;;;5057647;28;19920;-68
2021/06/25 12:18:18;;;;;;;;;;;26.40;39.70;;;;;;5062031;28;20338;-68
2021/06/25 12:20:43;;;;;;;;;;;24.60;46.10;;;;;;5055356;28;19931;-67
2021/06/25 12:23:09;;;;;;;;;;;24.00;45.60;;;;;;5058820;28;21280;-68
2021/06/25 12:25:41;;;;;;;;;;;25.20;44.10;;;;;;5058975;28;19916;-68
2021/06/25 12:28:15;;;;;;;;;;;25.60;43.90;;;;;;5039202;28;20011;-69
2021/06/25 12:30:45;;;;;;;;;;;26.20;40.40;;;;;;5061580;28;19920;-68
2021/06/25 12:33:11;;;;;;;;;;;26.00;41.70;;;;;;5061316;28;19913;-68
2021/06/25 12:35:37;;;;;;;;;;;26.00;40.70;;;;;;5058507;28;19928;-68
2021/06/25 12:38:07;;;;;;;;;;;26.20;40.70;;;;;;5057815;28;19946;-68
2021/06/25 12:40:44;;;;;;;;;;;26.10;40.00;;;;;;5058299;28;19935;-69
2021/06/25 12:43:10;;;;;;;;;;;27.40;39.10;;;;;;5060044;28;19972;-68
2021/06/25 12:45:37;;;;;;;;;;;26.60;40.70;;;;;;5056349;28;20424;-69
2021/06/25 12:48:07;;;;;;;;;;;26.30;41.30;;;;;;5058394;28;20366;-68
2021/06/25 12:50:32;;;;;;;;;;;25.00;40.60;;;;;;5060296;28;19924;-67
2021/06/25 12:53:11;;;;;;;;;;;25.40;40.20;;;;;;5055986;28;19916;-68
2021/06/25 12:55:36;;;;;;;;;;;25.50;40.40;;;;;;5059750;28;19913;-68
2021/06/25 12:58:02;;;;;;;;;;;26.80;39.90;;;;;;5055524;28;20254;-67
2021/06/25 13:00:29;;;;;;;;;;;26.00;37.40;;;;;;5053666;28;19998;-68
2021/06/25 13:02:54;;;;;;;;;;;25.10;40.30;;;;;;5056750;28;19924;-69
2021/06/25 13:05:33;;;;;;;;;;;24.30;41.30;;;;;;5055908;28;20299;-67
2021/06/25 13:08:02;;;;;;;;;;;24.00;43.90;;;;;;5060448;28;20257;-68
2021/06/25 13:10:27;;;;;;;;;;;24.00;42.00;;;;;;5058836;28;19920;-68
2021/06/25 13:12:53;;;;;;;;;;;24.50;42.60;;;;;;5059711;28;20487;-68
2021/06/25 13:15:19;;;;;;;;;;;24.30;45.10;;;;;;5060692;28;19912;-68
2021/06/25 13:17:47;;;;;;;;;;;25.30;40.40;;;;;;5057956;28;19916;-69
2021/06/25 13:20:15;;;;;;;;;;;26.40;38.60;;;;;;5052042;28;20510;-68
2021/06/25 13:22:59;;;;;;;;;;;27.50;35.90;;;;;;5055758;28;19959;-68
2021/06/25 13:25:44;;;;;;;;;;;26.60;37.00;;;;;;5056199;28;19928;-68
2021/06/25 13:28:09;;;;;;;;;;;26.00;37.50;;;;;;5057958;28;20384;-68
2021/06/25 13:30:35;;;;;;;;;;;25.50;39.00;;;;;;5057463;28;20018;-68
2021/06/25 13:33:12;;;;;;;;;;;25.50;38.20;;;;;;5057329;28;19912;-66
2021/06/25 13:35:41;;;;;;;;;;;26.60;36.50;;;;;;5053614;28;19913;-68
2021/06/25 13:38:15;;;;;;;;;;;26.40;38.20;;;;;;5053172;28;19931;-68
2021/06/25 13:40:48;;;;;;;;;;;26.70;37.40;;;;;;5052782;28;19940;-68
2021/06/25 13:43:15;;;;;;;;;;;27.40;35.90;;;;;;5056458;28;19997;-68
2021/06/25 13:45:41;;;;;;;;;;;27.40;35.20;;;;;;5056497;28;20370;-69
2021/06/25 13:48:23;;;;;;;;;;;27.10;35.00;;;;;;5052512;28;20341;-69
2021/06/25 13:50:50;;;;;;;;;;;26.90;38.60;;;;;;5050927;28;20316;-68
2021/06/25 13:53:34;;;;;;;;;;;27.10;36.60;;;;;;5054144;28;19936;-68
2021/06/25 13:56:00;;;;;;;;;;;26.40;39.30;;;;;;5054083;28;21475;-68
2021/06/25 13:58:26;;;;;;;;;;;26.60;38.10;;;;;;5052701;28;20576;-68
2021/06/25 14:00:56;;;;;;;;;;;27.50;35.10;;;;;;5053773;28;19924;-68
2021/06/25 14:03:23;;;;;;;;;;;28.40;34.10;;;;;;5055233;28;19913;-67
2021/06/25 14:05:56;;;;;;;;;;;28.40;32.90;;;;;;5054702;28;19947;-68
2021/06/25 14:08:21;;;;;;;;;;;28.70;32.70;;;;;;5052294;28;20260;-68
2021/06/25 14:10:55;;;;;;;;;;;28.00;32.70;;;;;;5058041;28;19917;-69
2021/06/25 14:13:33;;;;;;;;;;;27.30;34.00;;;;;;5056421;28;19973;-68
2021/06/25 14:15:59;;;;;;;;;;;26.60;35.10;;;;;;5055326;28;20237;-69
2021/06/25 14:18:27;;;;;;;;;;;26.00;39.10;;;;;;5052942;28;19924;-68
2021/06/25 14:20:52;;;;;;;;;;;27.50;37.20;;;;;;5054650;28;20051;-68
2021/06/25 14:23:18;;;;;;;;;;;28.00;32.80;;;;;;5060758;28;19990;-68
2021/06/25 14:25:44;;;;;;;;;;;28.50;32.40;;;;;;5056792;28;19955;-69
2021/06/25 14:28:09;;;;;;;;;;;29.40;30.60;;;;;;5057820;28;19936;-68
2021/06/25 14:30:35;;;;;;;;;;;30.70;31.90;;;;;;5054838;28;19992;-70
2021/06/25 14:33:00;;;;;;;;;;;30.00;31.30;;;;;;5050976;28;19913;-69
2021/06/25 14:35:26;;;;;;;;;;;28.90;33.30;;;;;;5053756;28;19996;-69
2021/06/25 14:37:51;;;;;;;;;;;28.10;32.90;;;;;;5058482;28;19972;-68